sensor_id;sensor_type;location;lat;lon;timestamp;P1;durP1;ratioP1;P2;durP2;ratioP2
63688;SDS011;54895;40.928;14.480;2023-04-07T00:02:25;12.20;;;7.68;;
63688;SDS011;54895;40.928;14.480;2023-04-07T00:04:51;13.70;;;8.45;;
63688;SDS011;54895;40.928;14.480;2023-04-07T00:07:18;12.55;;;8.25;;
63688;SDS011;54895;40.928;14.480;2023-04-07T00:09:44;14.68;;;9.32;;
63688;SDS011;54895;40.928;14.480;2023-04-07T00:12:11;14.27;;;8.43;;
63688;SDS011;54895;40.928;14.480;2023-04-07T00:14:37;12.55;;;7.97;;
63688;SDS011;54895;40.928;14.480;2023-04-07T00:17:03;13.93;;;8.50;;
63688;SDS011;54895;40.928;14.480;2023-04-07T00:19:30;15.23;;;8.90;;
63688;SDS011;54895;40.928;14.480;2023-04-07T00:21:58;11.65;;;8.30;;
63688;SDS011;54895;40.928;14.480;2023-04-07T00:24:24;15.00;;;9.00;;
63688;SDS011;54895;40.928;14.480;2023-04-07T00:26:51;13.60;;;8.20;;
63688;SDS011;54895;40.928;14.480;2023-04-07T00:29:17;13.35;;;7.95;;
63688;SDS011;54895;40.928;14.480;2023-04-07T00:31:43;15.90;;;8.60;;
63688;SDS011;54895;40.928;14.480;2023-04-07T00:34:10;16.63;;;7.97;;
63688;SDS011;54895;40.928;14.480;2023-04-07T00:36:37;10.27;;;7.93;;
63688;SDS011;54895;40.928;14.480;2023-04-07T00:39:03;13.63;;;7.65;;
63688;SDS011;54895;40.928;14.480;2023-04-07T00:41:32;12.20;;;7.13;;
63688;SDS011;54895;40.928;14.480;2023-04-07T00:44:00;12.48;;;7.95;;
63688;SDS011;54895;40.928;14.480;2023-04-07T00:46:27;20.20;;;8.73;;
63688;SDS011;54895;40.928;14.480;2023-04-07T00:48:53;12.55;;;8.10;;
63688;SDS011;54895;40.928;14.480;2023-04-07T00:51:20;13.93;;;8.77;;
63688;SDS011;54895;40.928;14.480;2023-04-07T00:53:48;11.07;;;7.80;;
63688;SDS011;54895;40.928;14.480;2023-04-07T00:56:14;15.13;;;9.05;;
63688;SDS011;54895;40.928;14.480;2023-04-07T00:58:41;15.25;;;9.05;;
63688;SDS011;54895;40.928;14.480;2023-04-07T01:01:08;15.00;;;8.40;;
63688;SDS011;54895;40.928;14.480;2023-04-07T01:06:18;12.60;;;8.15;;
63688;SDS011;54895;40.928;14.480;2023-04-07T01:11:38;11.70;;;8.23;;
63688;SDS011;54895;40.928;14.480;2023-04-07T01:14:24;13.40;;;7.35;;
63688;SDS011;54895;40.928;14.480;2023-04-07T01:17:01;11.68;;;8.18;;
63688;SDS011;54895;40.928;14.480;2023-04-07T01:19:32;11.25;;;8.00;;
63688;SDS011;54895;40.928;14.480;2023-04-07T01:22:05;11.45;;;7.72;;
63688;SDS011;54895;40.928;14.480;2023-04-07T01:30:06;12.95;;;8.65;;
63688;SDS011;54895;40.928;14.480;2023-04-07T01:32:36;13.18;;;8.70;;
63688;SDS011;54895;40.928;14.480;2023-04-07T01:35:06;14.27;;;9.27;;
63688;SDS011;54895;40.928;14.480;2023-04-07T01:37:37;12.15;;;8.23;;
63688;SDS011;54895;40.928;14.480;2023-04-07T01:40:04;12.85;;;8.52;;
63688;SDS011;54895;40.928;14.480;2023-04-07T01:42:33;13.32;;;8.07;;
63688;SDS011;54895;40.928;14.480;2023-04-07T01:45:01;14.77;;;8.38;;
63688;SDS011;54895;40.928;14.480;2023-04-07T01:47:29;9.32;;;7.10;;
63688;SDS011;54895;40.928;14.480;2023-04-07T01:49:57;9.70;;;7.38;;
63688;SDS011;54895;40.928;14.480;2023-04-07T01:52:25;10.57;;;6.90;;
63688;SDS011;54895;40.928;14.480;2023-04-07T01:54:53;10.63;;;6.70;;
63688;SDS011;54895;40.928;14.480;2023-04-07T01:57:20;86.28;;;15.77;;
63688;SDS011;54895;40.928;14.480;2023-04-07T01:59:51;28.35;;;9.38;;
63688;SDS011;54895;40.928;14.480;2023-04-07T02:02:21;9.73;;;7.05;;
63688;SDS011;54895;40.928;14.480;2023-04-07T02:04:53;13.18;;;7.20;;
63688;SDS011;54895;40.928;14.480;2023-04-07T02:07:25;11.13;;;6.45;;
63688;SDS011;54895;40.928;14.480;2023-04-07T02:09:57;12.20;;;6.80;;
63688;SDS011;54895;40.928;14.480;2023-04-07T02:12:26;10.98;;;6.75;;
63688;SDS011;54895;40.928;14.480;2023-04-07T02:15:07;10.25;;;6.80;;
63688;SDS011;54895;40.928;14.480;2023-04-07T02:17:37;9.32;;;6.53;;
63688;SDS011;54895;40.928;14.480;2023-04-07T02:20:05;10.90;;;7.30;;
63688;SDS011;54895;40.928;14.480;2023-04-07T02:22:37;11.55;;;7.32;;
63688;SDS011;54895;40.928;14.480;2023-04-07T02:25:26;11.32;;;7.55;;
63688;SDS011;54895;40.928;14.480;2023-04-07T02:27:55;9.93;;;6.72;;
63688;SDS011;54895;40.928;14.480;2023-04-07T02:30:23;14.68;;;8.00;;
63688;SDS011;54895;40.928;14.480;2023-04-07T02:32:51;11.00;;;7.15;;
63688;SDS011;54895;40.928;14.480;2023-04-07T02:35:17;11.32;;;7.10;;
63688;SDS011;54895;40.928;14.480;2023-04-07T02:37:44;14.68;;;7.90;;
63688;SDS011;54895;40.928;14.480;2023-04-07T02:40:11;13.07;;;7.70;;
63688;SDS011;54895;40.928;14.480;2023-04-07T02:42:38;13.80;;;8.13;;
63688;SDS011;54895;40.928;14.480;2023-04-07T02:45:05;13.55;;;7.90;;
63688;SDS011;54895;40.928;14.480;2023-04-07T02:47:33;14.52;;;7.80;;
63688;SDS011;54895;40.928;14.480;2023-04-07T02:50:01;12.82;;;7.80;;
63688;SDS011;54895;40.928;14.480;2023-04-07T02:52:27;13.07;;;7.43;;
63688;SDS011;54895;40.928;14.480;2023-04-07T02:54:54;11.65;;;7.07;;
63688;SDS011;54895;40.928;14.480;2023-04-07T02:57:25;11.52;;;6.72;;
63688;SDS011;54895;40.928;14.480;2023-04-07T02:59:54;9.43;;;6.68;;
63688;SDS011;54895;40.928;14.480;2023-04-07T03:02:26;8.70;;;5.72;;
63688;SDS011;54895;40.928;14.480;2023-04-07T03:04:52;11.15;;;6.22;;
63688;SDS011;54895;40.928;14.480;2023-04-07T03:07:21;13.90;;;7.15;;
63688;SDS011;54895;40.928;14.480;2023-04-07T03:09:50;15.88;;;7.32;;
63688;SDS011;54895;40.928;14.480;2023-04-07T03:12:17;13.23;;;7.20;;
63688;SDS011;54895;40.928;14.480;2023-04-07T03:14:44;13.02;;;7.18;;
63688;SDS011;54895;40.928;14.480;2023-04-07T03:17:10;13.18;;;7.78;;
63688;SDS011;54895;40.928;14.480;2023-04-07T03:19:38;11.10;;;6.97;;
63688;SDS011;54895;40.928;14.480;2023-04-07T03:22:04;13.40;;;7.22;;
63688;SDS011;54895;40.928;14.480;2023-04-07T03:24:35;14.60;;;7.38;;
63688;SDS011;54895;40.928;14.480;2023-04-07T03:27:02;14.30;;;7.03;;
63688;SDS011;54895;40.928;14.480;2023-04-07T03:29:38;15.93;;;7.55;;
63688;SDS011;54895;40.928;14.480;2023-04-07T03:32:07;9.88;;;6.72;;
63688;SDS011;54895;40.928;14.480;2023-04-07T03:34:33;12.02;;;7.13;;
63688;SDS011;54895;40.928;14.480;2023-04-07T03:37:00;13.18;;;7.88;;
63688;SDS011;54895;40.928;14.480;2023-04-07T03:39:29;12.10;;;7.57;;
63688;SDS011;54895;40.928;14.480;2023-04-07T03:41:59;9.45;;;6.60;;
63688;SDS011;54895;40.928;14.480;2023-04-07T03:44:29;11.98;;;7.13;;
63688;SDS011;54895;40.928;14.480;2023-04-07T03:46:55;12.63;;;7.20;;
63688;SDS011;54895;40.928;14.480;2023-04-07T03:49:23;13.15;;;6.38;;
63688;SDS011;54895;40.928;14.480;2023-04-07T03:51:50;10.20;;;5.90;;
63688;SDS011;54895;40.928;14.480;2023-04-07T03:54:18;12.13;;;6.63;;
63688;SDS011;54895;40.928;14.480;2023-04-07T03:56:45;12.75;;;6.80;;
63688;SDS011;54895;40.928;14.480;2023-04-07T03:59:15;13.48;;;6.60;;
63688;SDS011;54895;40.928;14.480;2023-04-07T04:01:52;9.48;;;6.82;;
63688;SDS011;54895;40.928;14.480;2023-04-07T04:04:19;10.27;;;6.88;;
63688;SDS011;54895;40.928;14.480;2023-04-07T04:06:47;9.93;;;6.20;;
63688;SDS011;54895;40.928;14.480;2023-04-07T04:09:24;10.07;;;5.97;;
63688;SDS011;54895;40.928;14.480;2023-04-07T04:11:50;12.20;;;6.55;;
63688;SDS011;54895;40.928;14.480;2023-04-07T04:14:17;9.57;;;5.53;;
63688;SDS011;54895;40.928;14.480;2023-04-07T04:16:53;9.65;;;5.97;;
63688;SDS011;54895;40.928;14.480;2023-04-07T04:19:29;9.93;;;6.60;;
63688;SDS011;54895;40.928;14.480;2023-04-07T04:22:00;9.75;;;6.00;;
63688;SDS011;54895;40.928;14.480;2023-04-07T04:24:30;15.68;;;7.15;;
63688;SDS011;54895;40.928;14.480;2023-04-07T04:27:02;11.25;;;5.53;;
63688;SDS011;54895;40.928;14.480;2023-04-07T04:29:30;13.25;;;5.65;;
63688;SDS011;54895;40.928;14.480;2023-04-07T04:31:59;8.60;;;5.93;;
63688;SDS011;54895;40.928;14.480;2023-04-07T04:34:26;13.85;;;6.18;;
63688;SDS011;54895;40.928;14.480;2023-04-07T04:36:53;22.85;;;7.57;;
63688;SDS011;54895;40.928;14.480;2023-04-07T04:39:45;21.33;;;6.95;;
63688;SDS011;54895;40.928;14.480;2023-04-07T04:42:14;20.30;;;7.03;;
63688;SDS011;54895;40.928;14.480;2023-04-07T04:44:42;16.50;;;6.82;;
63688;SDS011;54895;40.928;14.480;2023-04-07T04:47:08;15.95;;;6.32;;
63688;SDS011;54895;40.928;14.480;2023-04-07T04:49:38;12.65;;;5.80;;
63688;SDS011;54895;40.928;14.480;2023-04-07T04:52:04;10.77;;;6.40;;
63688;SDS011;54895;40.928;14.480;2023-04-07T04:54:37;14.85;;;6.18;;
63688;SDS011;54895;40.928;14.480;2023-04-07T04:57:04;18.00;;;6.70;;
63688;SDS011;54895;40.928;14.480;2023-04-07T04:59:32;10.73;;;6.00;;
63688;SDS011;54895;40.928;14.480;2023-04-07T05:02:02;13.32;;;6.20;;
63688;SDS011;54895;40.928;14.480;2023-04-07T05:04:28;12.50;;;5.90;;
63688;SDS011;54895;40.928;14.480;2023-04-07T05:07:15;8.45;;;5.80;;
63688;SDS011;54895;40.928;14.480;2023-04-07T05:09:41;11.55;;;6.57;;
63688;SDS011;54895;40.928;14.480;2023-04-07T05:12:08;11.88;;;6.30;;
63688;SDS011;54895;40.928;14.480;2023-04-07T05:14:41;15.00;;;6.15;;
63688;SDS011;54895;40.928;14.480;2023-04-07T05:17:08;9.77;;;6.20;;
63688;SDS011;54895;40.928;14.480;2023-04-07T05:19:34;12.32;;;5.57;;
63688;SDS011;54895;40.928;14.480;2023-04-07T05:22:08;12.93;;;6.10;;
63688;SDS011;54895;40.928;14.480;2023-04-07T05:24:42;15.27;;;6.38;;
63688;SDS011;54895;40.928;14.480;2023-04-07T05:27:11;17.13;;;6.75;;
63688;SDS011;54895;40.928;14.480;2023-04-07T05:29:39;14.23;;;5.78;;
63688;SDS011;54895;40.928;14.480;2023-04-07T05:32:09;13.77;;;6.55;;
63688;SDS011;54895;40.928;14.480;2023-04-07T05:34:36;14.32;;;6.18;;
63688;SDS011;54895;40.928;14.480;2023-04-07T05:37:06;13.20;;;5.80;;
63688;SDS011;54895;40.928;14.480;2023-04-07T05:39:32;11.38;;;5.18;;
63688;SDS011;54895;40.928;14.480;2023-04-07T05:42:00;12.75;;;6.28;;
63688;SDS011;54895;40.928;14.480;2023-04-07T05:44:28;8.02;;;4.72;;
63688;SDS011;54895;40.928;14.480;2023-04-07T05:46:55;8.95;;;4.55;;
63688;SDS011;54895;40.928;14.480;2023-04-07T05:49:24;12.55;;;5.03;;
63688;SDS011;54895;40.928;14.480;2023-04-07T05:51:59;11.50;;;4.90;;
63688;SDS011;54895;40.928;14.480;2023-04-07T05:54:26;12.80;;;5.43;;
63688;SDS011;54895;40.928;14.480;2023-04-07T05:56:53;10.25;;;5.03;;
63688;SDS011;54895;40.928;14.480;2023-04-07T05:59:22;12.27;;;5.28;;
63688;SDS011;54895;40.928;14.480;2023-04-07T06:01:50;10.05;;;5.60;;
63688;SDS011;54895;40.928;14.480;2023-04-07T06:04:17;14.15;;;6.20;;
63688;SDS011;54895;40.928;14.480;2023-04-07T06:06:45;12.50;;;5.55;;
63688;SDS011;54895;40.928;14.480;2023-04-07T06:09:12;11.88;;;5.70;;
63688;SDS011;54895;40.928;14.480;2023-04-07T06:11:38;8.52;;;5.40;;
63688;SDS011;54895;40.928;14.480;2023-04-07T06:14:05;10.35;;;5.40;;
63688;SDS011;54895;40.928;14.480;2023-04-07T06:16:31;10.45;;;5.35;;
63688;SDS011;54895;40.928;14.480;2023-04-07T06:18:57;11.75;;;5.28;;
63688;SDS011;54895;40.928;14.480;2023-04-07T06:21:24;11.68;;;5.43;;
63688;SDS011;54895;40.928;14.480;2023-04-07T06:23:52;19.17;;;6.50;;
63688;SDS011;54895;40.928;14.480;2023-04-07T06:26:18;17.15;;;6.10;;
63688;SDS011;54895;40.928;14.480;2023-04-07T06:28:44;10.07;;;6.20;;
63688;SDS011;54895;40.928;14.480;2023-04-07T06:31:11;10.57;;;6.40;;
63688;SDS011;54895;40.928;14.480;2023-04-07T06:33:37;13.25;;;6.10;;
63688;SDS011;54895;40.928;14.480;2023-04-07T06:36:04;13.93;;;6.53;;
63688;SDS011;54895;40.928;14.480;2023-04-07T06:38:30;13.35;;;6.70;;
63688;SDS011;54895;40.928;14.480;2023-04-07T06:40:56;10.32;;;6.65;;
63688;SDS011;54895;40.928;14.480;2023-04-07T06:43:23;12.70;;;6.47;;
63688;SDS011;54895;40.928;14.480;2023-04-07T06:46:09;15.40;;;6.70;;
63688;SDS011;54895;40.928;14.480;2023-04-07T06:48:35;14.75;;;6.65;;
63688;SDS011;54895;40.928;14.480;2023-04-07T06:51:02;11.50;;;6.25;;
63688;SDS011;54895;40.928;14.480;2023-04-07T06:53:30;10.80;;;5.47;;
63688;SDS011;54895;40.928;14.480;2023-04-07T06:56:07;12.52;;;5.70;;
63688;SDS011;54895;40.928;14.480;2023-04-07T06:58:35;9.60;;;5.93;;
63688;SDS011;54895;40.928;14.480;2023-04-07T07:01:02;13.40;;;5.78;;
63688;SDS011;54895;40.928;14.480;2023-04-07T07:03:29;10.63;;;4.80;;
63688;SDS011;54895;40.928;14.480;2023-04-07T07:05:57;9.13;;;4.95;;
63688;SDS011;54895;40.928;14.480;2023-04-07T07:08:24;6.95;;;4.00;;
63688;SDS011;54895;40.928;14.480;2023-04-07T07:10:51;8.40;;;4.45;;
63688;SDS011;54895;40.928;14.480;2023-04-07T07:13:18;8.73;;;4.45;;
63688;SDS011;54895;40.928;14.480;2023-04-07T07:15:48;9.45;;;4.43;;
63688;SDS011;54895;40.928;14.480;2023-04-07T07:18:15;14.50;;;4.00;;
63688;SDS011;54895;40.928;14.480;2023-04-07T07:20:42;8.45;;;3.50;;
63688;SDS011;54895;40.928;14.480;2023-04-07T07:23:09;7.93;;;3.83;;
63688;SDS011;54895;40.928;14.480;2023-04-07T07:25:35;7.50;;;4.13;;
63688;SDS011;54895;40.928;14.480;2023-04-07T07:28:02;6.18;;;3.53;;
63688;SDS011;54895;40.928;14.480;2023-04-07T07:30:29;8.02;;;3.60;;
63688;SDS011;54895;40.928;14.480;2023-04-07T07:32:55;8.02;;;3.20;;
63688;SDS011;54895;40.928;14.480;2023-04-07T07:35:22;6.80;;;3.33;;
63688;SDS011;54895;40.928;14.480;2023-04-07T07:37:50;6.38;;;2.58;;
63688;SDS011;54895;40.928;14.480;2023-04-07T07:40:17;8.05;;;3.08;;
63688;SDS011;54895;40.928;14.480;2023-04-07T07:42:44;6.72;;;3.15;;
63688;SDS011;54895;40.928;14.480;2023-04-07T07:45:12;5.97;;;3.13;;
63688;SDS011;54895;40.928;14.480;2023-04-07T07:52:04;5.40;;;2.87;;
63688;SDS011;54895;40.928;14.480;2023-04-07T08:00:34;6.63;;;3.28;;
63688;SDS011;54895;40.928;14.480;2023-04-07T08:22:24;7.88;;;2.63;;
63688;SDS011;54895;40.928;14.480;2023-04-07T08:35:27;6.75;;;1.90;;
63688;SDS011;54895;40.928;14.480;2023-04-07T08:43:59;7.07;;;2.17;;
63688;SDS011;54895;40.928;14.480;2023-04-07T08:56:20;5.15;;;2.03;;
63688;SDS011;54895;40.928;14.480;2023-04-07T08:58:48;6.70;;;1.95;;
63688;SDS011;54895;40.928;14.480;2023-04-07T09:01:14;3.42;;;2.05;;
63688;SDS011;54895;40.928;14.480;2023-04-07T09:03:41;3.90;;;2.38;;
63688;SDS011;54895;40.928;14.480;2023-04-07T09:06:10;5.32;;;2.17;;
63688;SDS011;54895;40.928;14.480;2023-04-07T09:08:36;6.47;;;2.53;;
63688;SDS011;54895;40.928;14.480;2023-04-07T09:11:03;4.32;;;2.30;;
63688;SDS011;54895;40.928;14.480;2023-04-07T09:13:29;5.03;;;2.50;;
63688;SDS011;54895;40.928;14.480;2023-04-07T09:15:57;6.55;;;1.90;;
63688;SDS011;54895;40.928;14.480;2023-04-07T09:18:27;5.85;;;2.80;;
63688;SDS011;54895;40.928;14.480;2023-04-07T09:23:30;5.65;;;2.80;;
63688;SDS011;54895;40.928;14.480;2023-04-07T09:25:58;8.30;;;2.80;;
63688;SDS011;54895;40.928;14.480;2023-04-07T09:28:45;5.80;;;2.90;;
63688;SDS011;54895;40.928;14.480;2023-04-07T09:31:13;10.13;;;2.58;;
63688;SDS011;54895;40.928;14.480;2023-04-07T09:33:39;6.72;;;3.08;;
63688;SDS011;54895;40.928;14.480;2023-04-07T09:36:06;7.18;;;4.07;;
63688;SDS011;54895;40.928;14.480;2023-04-07T09:38:33;7.57;;;3.53;;
63688;SDS011;54895;40.928;14.480;2023-04-07T09:41:19;7.47;;;3.40;;
63688;SDS011;54895;40.928;14.480;2023-04-07T09:43:46;7.15;;;3.22;;
63688;SDS011;54895;40.928;14.480;2023-04-07T09:46:13;7.45;;;3.45;;
63688;SDS011;54895;40.928;14.480;2023-04-07T09:48:41;5.18;;;2.65;;
63688;SDS011;54895;40.928;14.480;2023-04-07T09:53:47;6.10;;;2.70;;
63688;SDS011;54895;40.928;14.480;2023-04-07T09:56:15;15.13;;;3.00;;
63688;SDS011;54895;40.928;14.480;2023-04-07T09:58:44;5.85;;;3.05;;
63688;SDS011;54895;40.928;14.480;2023-04-07T10:01:12;4.78;;;2.90;;
63688;SDS011;54895;40.928;14.480;2023-04-07T10:03:41;4.63;;;3.00;;
63688;SDS011;54895;40.928;14.480;2023-04-07T10:06:08;7.22;;;3.33;;
63688;SDS011;54895;40.928;14.480;2023-04-07T10:08:35;7.97;;;3.58;;
63688;SDS011;54895;40.928;14.480;2023-04-07T10:11:03;10.00;;;3.10;;
63688;SDS011;54895;40.928;14.480;2023-04-07T10:13:32;5.85;;;3.30;;
63688;SDS011;54895;40.928;14.480;2023-04-07T10:16:04;5.60;;;3.42;;
63688;SDS011;54895;40.928;14.480;2023-04-07T10:18:32;4.72;;;3.35;;
63688;SDS011;54895;40.928;14.480;2023-04-07T10:21:05;6.25;;;3.70;;
63688;SDS011;54895;40.928;14.480;2023-04-07T10:26:08;3.58;;;2.60;;
63688;SDS011;54895;40.928;14.480;2023-04-07T10:28:37;7.05;;;2.75;;
63688;SDS011;54895;40.928;14.480;2023-04-07T10:31:09;4.72;;;2.78;;
63688;SDS011;54895;40.928;14.480;2023-04-07T10:33:43;6.07;;;3.05;;
63688;SDS011;54895;40.928;14.480;2023-04-07T10:36:17;5.95;;;2.75;;
63688;SDS011;54895;40.928;14.480;2023-04-07T10:39:33;14.85;;;3.03;;
63688;SDS011;54895;40.928;14.480;2023-04-07T10:44:45;3.95;;;2.88;;
63688;SDS011;54895;40.928;14.480;2023-04-07T10:47:05;4.57;;;2.30;;
63688;SDS011;54895;40.928;14.480;2023-04-07T10:49:32;4.55;;;2.55;;
63688;SDS011;54895;40.928;14.480;2023-04-07T10:52:20;4.80;;;2.60;;
63688;SDS011;54895;40.928;14.480;2023-04-07T10:54:48;4.65;;;2.28;;
63688;SDS011;54895;40.928;14.480;2023-04-07T11:00:37;6.22;;;2.58;;
63688;SDS011;54895;40.928;14.480;2023-04-07T11:03:10;4.25;;;2.83;;
63688;SDS011;54895;40.928;14.480;2023-04-07T11:05:40;4.50;;;2.42;;
63688;SDS011;54895;40.928;14.480;2023-04-07T11:08:07;6.75;;;2.42;;
63688;SDS011;54895;40.928;14.480;2023-04-07T11:10:34;4.20;;;2.30;;
63688;SDS011;54895;40.928;14.480;2023-04-07T11:13:02;3.50;;;2.22;;
63688;SDS011;54895;40.928;14.480;2023-04-07T11:15:31;3.72;;;2.05;;
63688;SDS011;54895;40.928;14.480;2023-04-07T11:18:18;7.50;;;2.67;;
63688;SDS011;54895;40.928;14.480;2023-04-07T11:23:14;3.28;;;2.05;;
63688;SDS011;54895;40.928;14.480;2023-04-07T11:25:42;5.03;;;2.08;;
63688;SDS011;54895;40.928;14.480;2023-04-07T11:28:10;8.07;;;3.28;;
63688;SDS011;54895;40.928;14.480;2023-04-07T11:30:42;4.07;;;2.45;;
63688;SDS011;54895;40.928;14.480;2023-04-07T11:33:15;4.85;;;2.20;;
63688;SDS011;54895;40.928;14.480;2023-04-07T11:35:46;4.97;;;2.20;;
63688;SDS011;54895;40.928;14.480;2023-04-07T11:38:16;9.02;;;3.80;;
63688;SDS011;54895;40.928;14.480;2023-04-07T11:40:43;11.32;;;3.83;;
63688;SDS011;54895;40.928;14.480;2023-04-07T11:43:14;4.03;;;2.28;;
63688;SDS011;54895;40.928;14.480;2023-04-07T11:45:46;7.90;;;2.67;;
63688;SDS011;54895;40.928;14.480;2023-04-07T11:50:56;8.15;;;2.13;;
63688;SDS011;54895;40.928;14.480;2023-04-07T11:53:26;2.92;;;2.20;;
63688;SDS011;54895;40.928;14.480;2023-04-07T11:56:07;7.45;;;2.72;;
63688;SDS011;54895;40.928;14.480;2023-04-07T11:58:35;3.70;;;1.85;;
63688;SDS011;54895;40.928;14.480;2023-04-07T12:01:03;2.83;;;2.05;;
63688;SDS011;54895;40.928;14.480;2023-04-07T12:03:34;5.60;;;2.17;;
63688;SDS011;54895;40.928;14.480;2023-04-07T12:06:04;4.70;;;2.35;;
63688;SDS011;54895;40.928;14.480;2023-04-07T12:08:36;4.72;;;2.22;;
63688;SDS011;54895;40.928;14.480;2023-04-07T12:11:03;4.38;;;2.60;;
63688;SDS011;54895;40.928;14.480;2023-04-07T12:13:30;4.20;;;2.50;;
63688;SDS011;54895;40.928;14.480;2023-04-07T12:15:57;3.88;;;2.40;;
63688;SDS011;54895;40.928;14.480;2023-04-07T12:18:24;3.92;;;1.90;;
63688;SDS011;54895;40.928;14.480;2023-04-07T12:20:51;5.40;;;1.70;;
63688;SDS011;54895;40.928;14.480;2023-04-07T12:23:18;3.25;;;1.67;;
63688;SDS011;54895;40.928;14.480;2023-04-07T12:25:44;4.45;;;2.33;;
63688;SDS011;54895;40.928;14.480;2023-04-07T12:28:11;5.85;;;1.90;;
63688;SDS011;54895;40.928;14.480;2023-04-07T12:30:37;6.28;;;2.35;;
63688;SDS011;54895;40.928;14.480;2023-04-07T12:33:04;4.63;;;2.40;;
63688;SDS011;54895;40.928;14.480;2023-04-07T12:35:30;4.38;;;2.60;;
63688;SDS011;54895;40.928;14.480;2023-04-07T12:37:58;4.22;;;2.10;;
63688;SDS011;54895;40.928;14.480;2023-04-07T12:40:25;2.88;;;1.58;;
63688;SDS011;54895;40.928;14.480;2023-04-07T12:42:53;3.97;;;1.90;;
63688;SDS011;54895;40.928;14.480;2023-04-07T12:45:19;4.63;;;2.03;;
63688;SDS011;54895;40.928;14.480;2023-04-07T12:47:46;5.30;;;2.15;;
63688;SDS011;54895;40.928;14.480;2023-04-07T12:50:12;4.43;;;1.80;;
63688;SDS011;54895;40.928;14.480;2023-04-07T12:52:39;6.40;;;2.00;;
63688;SDS011;54895;40.928;14.480;2023-04-07T12:55:06;3.55;;;1.90;;
63688;SDS011;54895;40.928;14.480;2023-04-07T12:57:32;4.15;;;1.80;;
63688;SDS011;54895;40.928;14.480;2023-04-07T12:59:59;3.08;;;1.50;;
63688;SDS011;54895;40.928;14.480;2023-04-07T13:02:25;4.10;;;1.83;;
63688;SDS011;54895;40.928;14.480;2023-04-07T13:04:52;5.60;;;2.05;;
63688;SDS011;54895;40.928;14.480;2023-04-07T13:07:18;4.22;;;2.30;;
63688;SDS011;54895;40.928;14.480;2023-04-07T13:09:44;4.60;;;1.58;;
63688;SDS011;54895;40.928;14.480;2023-04-07T13:12:11;3.63;;;1.98;;
63688;SDS011;54895;40.928;14.480;2023-04-07T13:14:38;2.72;;;1.80;;
63688;SDS011;54895;40.928;14.480;2023-04-07T13:17:07;4.63;;;2.00;;
63688;SDS011;54895;40.928;14.480;2023-04-07T13:19:33;1.85;;;1.40;;
63688;SDS011;54895;40.928;14.480;2023-04-07T13:22:00;5.72;;;2.10;;
63688;SDS011;54895;40.928;14.480;2023-04-07T13:24:28;4.63;;;1.85;;
63688;SDS011;54895;40.928;14.480;2023-04-07T13:26:54;7.25;;;2.00;;
63688;SDS011;54895;40.928;14.480;2023-04-07T13:29:23;4.55;;;1.80;;
63688;SDS011;54895;40.928;14.480;2023-04-07T13:31:49;7.03;;;1.90;;
63688;SDS011;54895;40.928;14.480;2023-04-07T13:34:16;4.22;;;1.70;;
63688;SDS011;54895;40.928;14.480;2023-04-07T13:36:42;3.72;;;1.60;;
63688;SDS011;54895;40.928;14.480;2023-04-07T13:39:08;4.53;;;1.88;;
63688;SDS011;54895;40.928;14.480;2023-04-07T13:41:35;2.45;;;1.60;;
63688;SDS011;54895;40.928;14.480;2023-04-07T13:44:01;6.65;;;2.17;;
63688;SDS011;54895;40.928;14.480;2023-04-07T13:46:28;4.65;;;1.70;;
63688;SDS011;54895;40.928;14.480;2023-04-07T13:48:55;3.78;;;1.73;;
63688;SDS011;54895;40.928;14.480;2023-04-07T13:51:23;3.17;;;1.40;;
63688;SDS011;54895;40.928;14.480;2023-04-07T13:53:50;6.82;;;2.03;;
63688;SDS011;54895;40.928;14.480;2023-04-07T13:56:16;4.80;;;2.17;;
63688;SDS011;54895;40.928;14.480;2023-04-07T13:58:43;7.80;;;1.77;;
63688;SDS011;54895;40.928;14.480;2023-04-07T14:01:09;4.53;;;2.40;;
63688;SDS011;54895;40.928;14.480;2023-04-07T14:03:36;6.70;;;2.22;;
63688;SDS011;54895;40.928;14.480;2023-04-07T14:06:02;2.67;;;1.92;;
63688;SDS011;54895;40.928;14.480;2023-04-07T14:08:29;6.25;;;2.35;;
63688;SDS011;54895;40.928;14.480;2023-04-07T14:10:55;4.50;;;2.20;;
63688;SDS011;54895;40.928;14.480;2023-04-07T14:13:22;5.15;;;2.40;;
63688;SDS011;54895;40.928;14.480;2023-04-07T14:15:48;2.53;;;1.73;;
63688;SDS011;54895;40.928;14.480;2023-04-07T14:18:15;4.10;;;1.90;;
63688;SDS011;54895;40.928;14.480;2023-04-07T14:20:42;4.13;;;1.95;;
63688;SDS011;54895;40.928;14.480;2023-04-07T14:23:08;4.93;;;2.00;;
63688;SDS011;54895;40.928;14.480;2023-04-07T14:25:35;4.35;;;2.10;;
63688;SDS011;54895;40.928;14.480;2023-04-07T14:28:01;3.30;;;2.03;;
63688;SDS011;54895;40.928;14.480;2023-04-07T14:30:28;3.78;;;2.00;;
63688;SDS011;54895;40.928;14.480;2023-04-07T14:32:55;3.33;;;2.08;;
63688;SDS011;54895;40.928;14.480;2023-04-07T14:35:22;4.30;;;1.60;;
63688;SDS011;54895;40.928;14.480;2023-04-07T14:37:48;4.57;;;2.10;;
63688;SDS011;54895;40.928;14.480;2023-04-07T14:40:15;3.17;;;2.00;;
63688;SDS011;54895;40.928;14.480;2023-04-07T14:42:41;4.35;;;2.03;;
63688;SDS011;54895;40.928;14.480;2023-04-07T14:45:08;4.32;;;2.17;;
63688;SDS011;54895;40.928;14.480;2023-04-07T14:47:34;3.15;;;1.95;;
63688;SDS011;54895;40.928;14.480;2023-04-07T14:50:01;5.30;;;1.83;;
63688;SDS011;54895;40.928;14.480;2023-04-07T14:52:28;4.53;;;1.92;;
63688;SDS011;54895;40.928;14.480;2023-04-07T14:54:55;3.25;;;1.70;;
63688;SDS011;54895;40.928;14.480;2023-04-07T14:57:21;5.18;;;2.40;;
63688;SDS011;54895;40.928;14.480;2023-04-07T14:59:48;5.15;;;2.00;;
63688;SDS011;54895;40.928;14.480;2023-04-07T15:02:15;3.53;;;1.63;;
63688;SDS011;54895;40.928;14.480;2023-04-07T15:04:41;2.58;;;1.70;;
63688;SDS011;54895;40.928;14.480;2023-04-07T15:07:08;4.97;;;2.13;;
63688;SDS011;54895;40.928;14.480;2023-04-07T15:09:34;4.88;;;1.83;;
63688;SDS011;54895;40.928;14.480;2023-04-07T15:12:01;3.53;;;1.88;;
63688;SDS011;54895;40.928;14.480;2023-04-07T15:14:27;5.80;;;1.88;;
63688;SDS011;54895;40.928;14.480;2023-04-07T15:16:54;4.88;;;1.70;;
63688;SDS011;54895;40.928;14.480;2023-04-07T15:19:20;4.95;;;1.98;;
63688;SDS011;54895;40.928;14.480;2023-04-07T15:21:47;4.03;;;1.73;;
63688;SDS011;54895;40.928;14.480;2023-04-07T15:24:13;3.15;;;2.08;;
63688;SDS011;54895;40.928;14.480;2023-04-07T15:26:40;3.90;;;1.90;;
63688;SDS011;54895;40.928;14.480;2023-04-07T15:29:06;5.70;;;1.50;;
63688;SDS011;54895;40.928;14.480;2023-04-07T15:31:34;4.15;;;1.80;;
63688;SDS011;54895;40.928;14.480;2023-04-07T15:34:00;4.78;;;1.98;;
63688;SDS011;54895;40.928;14.480;2023-04-07T15:36:27;2.90;;;1.63;;
63688;SDS011;54895;40.928;14.480;2023-04-07T15:38:53;3.17;;;1.70;;
63688;SDS011;54895;40.928;14.480;2023-04-07T15:41:21;7.63;;;2.10;;
63688;SDS011;54895;40.928;14.480;2023-04-07T15:43:48;3.80;;;1.50;;
63688;SDS011;54895;40.928;14.480;2023-04-07T15:46:15;3.05;;;1.80;;
63688;SDS011;54895;40.928;14.480;2023-04-07T15:48:41;3.30;;;1.70;;
63688;SDS011;54895;40.928;14.480;2023-04-07T15:51:07;3.78;;;1.50;;
63688;SDS011;54895;40.928;14.480;2023-04-07T15:53:34;3.53;;;1.80;;
63688;SDS011;54895;40.928;14.480;2023-04-07T15:56:00;3.92;;;1.60;;
63688;SDS011;54895;40.928;14.480;2023-04-07T15:58:26;3.13;;;1.45;;
63688;SDS011;54895;40.928;14.480;2023-04-07T16:00:53;4.18;;;2.13;;
63688;SDS011;54895;40.928;14.480;2023-04-07T16:03:20;6.57;;;1.85;;